Time;durP1;ratioP1;P1;durP2;ratioP2;P2;SDS_P1;SDS_P2;PMS_P1;PMS_P2;Temp;Humidity;BMP_temperature;BMP_pressure;BME280_temperature;BME280_humidity;BME280_pressure;Samples;Min_cycle;Max_cycle;Signal;HPM_P1;HPM_P2
2020/12/03 00:01:10;;;;;;;52.05;28.15;;;;;;;4.70;50.30;100823.53;4997596;28;97890;-75
2020/12/03 00:03:39;;;;;;;53.25;26.83;;;;;;;4.71;50.21;100823.63;5000204;28;97799;-75
2020/12/03 00:06:14;;;;;;;55.53;26.75;;;;;;;4.70;49.86;100827.03;5003811;28;97083;-75
2020/12/03 00:08:46;;;;;;;53.75;26.92;;;;;;;4.71;50.46;100823.63;4994610;28;96957;-75
2020/12/03 00:11:14;;;;;;;47.42;25.42;;;;;;;4.73;50.06;100819.47;4999015;28;97808;-76
2020/12/03 00:13:43;;;;;;;58.38;28.20;;;;;;;4.74;50.15;100822.97;5000694;28;97817;-76
2020/12/03 00:16:10;;;;;;;48.35;25.25;;;;;;;4.74;50.24;100820.38;5006128;28;97160;-76
2020/12/03 00:18:38;;;;;;;47.08;25.25;;;;;;;4.77;50.14;100818.00;5002743;28;96795;-76
2020/12/03 00:21:08;;;;;;;53.33;27.08;;;;;;;4.78;49.87;100812.03;5005926;28;97938;-76
2020/12/03 00:23:36;;;;;;;48.78;25.90;;;;;;;4.79;50.17;100800.81;5005277;28;97836;-76
2020/12/03 00:26:04;;;;;;;56.42;27.63;;;;;;;4.78;50.19;100807.69;5002233;28;97074;-76
2020/12/03 00:28:35;;;;;;;52.80;26.20;;;;;;;4.77;50.26;100797.19;4992258;28;96729;-74
2020/12/03 00:31:03;;;;;;;51.42;26.38;;;;;;;4.79;50.14;100795.59;5001600;28;98944;-75
2020/12/03 00:33:31;;;;;;;51.13;26.52;;;;;;;4.83;50.42;100782.03;5000280;28;98140;-76
2020/12/03 00:35:58;;;;;;;48.75;25.67;;;;;;;4.85;49.89;100775.25;5000747;28;97365;-77
2020/12/03 00:38:27;;;;;;;50.03;23.92;;;;;;;4.86;49.94;100777.06;5002562;28;96877;-77
2020/12/03 00:40:54;;;;;;;52.67;26.73;;;;;;;4.86;50.21;100764.06;5001349;28;102240;-76
2020/12/03 00:43:21;;;;;;;55.00;26.75;;;;;;;4.87;50.18;100760.69;4998945;28;99116;-76
2020/12/03 00:45:49;;;;;;;46.78;24.33;;;;;;;4.88;49.94;100752.06;5001040;28;97113;-76
2020/12/03 00:48:19;;;;;;;52.28;26.83;;;;;;;4.88;50.38;100741.66;5004490;28;97454;-76
2020/12/03 00:50:48;;;;;;;46.95;25.75;;;;;;;4.89;49.82;100740.88;5033387;27;98488;-76
2020/12/03 00:53:17;;;;;;;52.92;26.45;;;;;;;4.89;50.12;100740.88;5006842;28;99088;-77
2020/12/03 00:55:45;;;;;;;53.60;27.23;;;;;;;4.92;49.79;100739.41;5002502;28;97283;-77
2020/12/03 00:58:16;;;;;;;55.90;26.27;;;;;;;4.93;50.25;100737.69;5000662;28;97431;-75
2020/12/03 01:01:03;;;;;;;53.67;26.08;;;;;;;4.93;50.18;100728.19;4999364;28;98224;-76
2020/12/03 01:03:32;;;;;;;51.45;26.13;;;;;;;4.96;50.23;100732.72;5004430;28;97815;-76
2020/12/03 01:05:59;;;;;;;51.10;26.90;;;;;;;4.95;50.19;100725.69;5005627;28;97191;-74
2020/12/03 01:08:27;;;;;;;56.72;26.48;;;;;;;4.95;50.05;100721.41;5007432;28;97562;-76
2020/12/03 01:10:54;;;;;;;53.47;26.58;;;;;;;4.97;50.10;100712.03;5000508;28;98068;-76
2020/12/03 01:13:23;;;;;;;49.35;26.10;;;;;;;4.99;49.95;100717.34;4999000;28;99462;-77
2020/12/03 01:15:50;;;;;;;48.75;26.10;;;;;;;4.98;49.89;100705.13;5006926;28;97165;-76
2020/12/03 01:18:18;;;;;;;49.97;28.33;;;;;;;5.00;50.20;100703.50;4993157;28;96720;-75
2020/12/03 01:20:46;;;;;;;45.05;25.55;;;;;;;5.00;49.99;100695.69;4998534;28;99019;-75
2020/12/03 01:23:13;;;;;;;49.35;25.92;;;;;;;5.00;49.92;100693.09;4987807;28;99339;-75
2020/12/03 01:25:41;;;;;;;51.20;25.95;;;;;;;5.00;50.27;100687.88;4989988;28;98087;-76
2020/12/03 01:28:08;;;;;;;49.75;26.33;;;;;;;4.99;49.79;100689.63;5002203;28;96684;-76
2020/12/03 01:30:55;;;;;;;45.20;25.05;;;;;;;5.00;49.93;100685.28;5005974;28;97930;-77
2020/12/03 01:33:22;;;;;;;47.03;25.95;;;;;;;5.00;50.11;100685.28;5003041;28;98116;-76
2020/12/03 01:36:11;;;;;;;45.10;23.83;;;;;;;4.99;50.30;100678.28;4990849;28;96777;-76
2020/12/03 01:38:57;;;;;;;46.08;24.85;;;;;;;4.99;50.10;100675.69;5004005;28;96969;-75
2020/12/03 01:41:25;;;;;;;53.85;25.80;;;;;;;4.99;50.02;100670.47;5006643;28;99060;-75
2020/12/03 01:43:52;;;;;;;49.20;25.75;;;;;;;5.00;50.38;100673.19;5003925;28;99032;-75
2020/12/03 01:46:19;;;;;;;51.25;25.45;;;;;;;5.03;50.16;100664.72;5001021;28;96699;-75
2020/12/03 01:48:49;;;;;;;51.97;25.95;;;;;;;5.02;50.28;100655.06;4999993;28;97438;-75
2020/12/03 01:51:23;;;;;;;54.80;25.55;;;;;;;5.01;49.91;100659.41;5001196;28;98093;-75
2020/12/03 01:53:53;;;;;;;45.65;24.67;;;;;;;5.01;50.45;100659.41;4991864;28;97006;-75
2020/12/03 01:56:29;;;;;;;46.88;24.63;;;;;;;5.02;50.32;100655.06;5002470;28;96957;-75
2020/12/03 01:58:57;;;;;;;47.72;24.10;;;;;;;5.02;50.26;100644.66;5003003;28;96680;-75
2020/12/03 02:01:25;;;;;;;47.58;24.77;;;;;;;4.98;50.30;100637.47;5000812;28;99201;-75
2020/12/03 02:03:52;;;;;;;42.40;22.55;;;;;;;4.99;50.06;100644.47;5001045;28;102220;-74
2020/12/03 02:06:22;;;;;;;48.50;24.90;;;;;;;4.98;49.96;100637.47;4994709;28;96575;-75
2020/12/03 02:08:49;;;;;;;47.30;24.00;;;;;;;5.00;50.06;100635.84;4992094;28;96949;-74
2020/12/03 02:11:19;;;;;;;47.50;24.90;;;;;;;5.01;50.26;100627.25;4994971;28;99482;-75
2020/12/03 02:13:52;;;;;;;43.65;23.88;;;;;;;4.97;50.11;100615.72;4992451;28;99546;-75
2020/12/03 02:16:20;;;;;;;46.47;24.60;;;;;;;4.97;50.07;100609.59;4994165;28;97805;-75
2020/12/03 02:18:48;;;;;;;44.78;23.73;;;;;;;4.98;50.31;100616.63;5002537;28;97440;-74
2020/12/03 02:21:17;;;;;;;41.33;23.98;;;;;;;4.96;50.18;100607.81;4998351;28;97889;-75
2020/12/03 02:23:45;;;;;;;44.33;22.58;;;;;;;4.96;50.39;100594.78;4998042;28;99127;-75
2020/12/03 02:26:13;;;;;;;44.50;23.33;;;;;;;4.97;49.97;100589.69;5003407;28;96699;-75
2020/12/03 02:28:40;;;;;;;47.42;24.15;;;;;;;5.00;49.97;100589.00;4995609;28;96843;-75
2020/12/03 02:31:08;;;;;;;50.20;25.05;;;;;;;5.03;50.19;100578.81;4998347;28;99288;-75
2020/12/03 02:33:36;;;;;;;51.10;24.55;;;;;;;5.04;50.09;100578.00;4988896;28;97990;-73
2020/12/03 02:36:03;;;;;;;45.28;23.40;;;;;;;5.05;50.32;100575.50;5000659;28;97438;-75
2020/12/03 02:38:32;;;;;;;46.92;23.58;;;;;;;5.07;50.24;100567.84;4999788;28;96881;-73
2020/12/03 02:41:00;;;;;;;44.28;23.50;;;;;;;5.09;49.76;100574.06;5004573;28;98974;-74
2020/12/03 02:43:29;;;;;;;43.33;23.27;;;;;;;5.09;49.74;100579.25;4999476;28;100239;-74
2020/12/03 02:45:56;;;;;;;47.70;24.95;;;;;;;5.10;50.08;100568.03;4995208;28;96640;-73
2020/12/03 02:48:24;;;;;;;48.20;23.70;;;;;;;5.11;49.47;100575.03;4997113;28;97192;-75
2020/12/03 02:50:51;;;;;;;47.20;24.38;;;;;;;5.12;49.98;100574.25;5025330;27;97826;-75
2020/12/03 02:53:19;;;;;;;42.00;23.40;;;;;;;5.12;50.00;100569.97;4999513;28;97900;-75
2020/12/03 02:55:47;;;;;;;43.65;23.38;;;;;;;5.12;49.39;100562.16;4996007;28;97112;-75
2020/12/03 02:58:15;;;;;;;48.03;24.85;;;;;;;5.14;50.19;100554.47;5001683;28;98010;-74
2020/12/03 03:00:42;;;;;;;43.70;23.42;;;;;;;5.14;49.77;100549.25;5009165;22;99400;-73
2020/12/03 03:03:10;;;;;;;46.83;22.85;;;;;;;5.16;49.69;100545.94;5001566;28;97545;-74
2020/12/03 03:05:37;;;;;;;41.95;22.27;;;;;;;5.18;49.61;100539.13;5008236;28;97352;-75
2020/12/03 03:08:04;;;;;;;42.75;22.58;;;;;;;5.19;50.00;100532.25;5006194;28;97263;-71
2020/12/03 03:10:32;;;;;;;45.15;23.80;;;;;;;5.18;49.79;100528.72;4997680;28;98787;-71
2020/12/03 03:13:00;;;;;;;51.50;24.38;;;;;;;5.19;49.95;100529.63;4976738;28;96747;-71
2020/12/03 03:15:28;;;;;;;46.13;23.70;;;;;;;5.19;49.81;100527.03;4979867;28;98580;-71
2020/12/03 03:17:55;;;;;;;49.13;24.10;;;;;;;5.15;49.60;100525.91;4982195;28;96965;-71
2020/12/03 03:20:23;;;;;;;42.90;22.95;;;;;;;5.15;50.05;100528.53;4975559;28;98417;-71
2020/12/03 03:22:51;;;;;;;49.92;24.42;;;;;;;5.18;49.47;100532.16;4985945;28;96897;-72
2020/12/03 03:25:18;;;;;;;45.33;23.15;;;;;;;5.19;49.36;100521.84;4984002;28;96726;-71
2020/12/03 03:27:46;;;;;;;47.22;23.75;;;;;;;5.17;49.65;100523.41;4984257;28;96898;-71
2020/12/03 03:30:16;;;;;;;41.35;22.50;;;;;;;5.16;49.87;100521.63;4976378;28;99852;-71
2020/12/03 03:32:44;;;;;;;43.17;22.55;;;;;;;5.14;49.76;100526.72;4975458;28;99168;-71
2020/12/03 03:35:15;;;;;;;42.22;23.77;;;;;;;5.13;49.98;100518.78;4969642;28;96670;-72
2020/12/03 03:37:43;;;;;;;48.00;24.80;;;;;;;5.15;50.00;100523.31;4984979;28;97042;-71
2020/12/03 03:40:10;;;;;;;42.72;22.85;;;;;;;5.14;49.99;100515.41;4984497;28;98368;-71
2020/12/03 03:42:38;;;;;;;48.03;24.67;;;;;;;5.14;50.05;100520.63;4985426;28;98179;-72
2020/12/03 03:45:06;;;;;;;40.35;23.58;;;;;;;5.14;49.76;100520.63;4980523;28;96639;-72
2020/12/03 03:47:34;;;;;;;42.78;23.65;;;;;;;5.16;50.02;100511.22;4974828;28;97243;-71
2020/12/03 03:50:03;;;;;;;44.20;24.63;;;;;;;5.18;49.62;100507.03;4972155;28;97963;-72
2020/12/03 03:52:30;;;;;;;46.08;23.58;;;;;;;5.20;50.01;100517.53;4977627;28;97814;-71
2020/12/03 03:54:58;;;;;;;47.95;24.00;;;;;;;5.19;50.07;100506.22;4989103;28;97159;-71
2020/12/03 03:57:26;;;;;;;52.25;23.75;;;;;;;5.20;50.30;100505.41;4976810;28;97265;-72
2020/12/03 03:59:54;;;;;;;49.28;24.40;;;;;;;5.21;50.09;100498.50;4976890;28;97550;-71
2020/12/03 04:02:22;;;;;;;48.50;25.27;;;;;;;5.23;49.69;100492.63;4976495;28;97761;-71
2020/12/03 04:04:51;;;;;;;46.03;24.08;;;;;;;5.22;49.53;100503.81;4988369;28;96838;-72
2020/12/03 04:07:19;;;;;;;44.67;23.08;;;;;;;5.22;49.94;100506.41;4972986;28;97288;-71
2020/12/03 04:09:47;;;;;;;46.05;24.00;;;;;;;5.23;49.73;100494.31;4978641;28;98956;-71
2020/12/03 04:12:14;;;;;;;47.13;24.17;;;;;;;5.23;50.07;100490.00;4974570;28;98203;-71
2020/12/03 04:14:42;;;;;;;44.67;24.30;;;;;;;5.25;49.78;100485.81;4978179;28;97265;-72
2020/12/03 04:17:09;;;;;;;49.42;22.98;;;;;;;5.26;49.55;100497.09;4979296;28;96733;-71
2020/12/03 04:19:57;;;;;;;44.17;23.42;;;;;;;5.25;49.73;100479.69;4975925;28;97340;-71
2020/12/03 04:22:27;;;;;;;43.80;24.15;;;;;;;5.27;50.00;100484.22;4981085;28;99360;-72
2020/12/03 04:24:55;;;;;;;46.03;23.45;;;;;;;5.28;49.88;100480.81;4989788;28;97404;-71
2020/12/03 04:27:22;;;;;;;49.88;23.85;;;;;;;5.29;49.51;100472.22;4983517;28;96865;-71
2020/12/03 04:29:50;;;;;;;43.67;23.85;;;;;;;5.30;49.92;100466.19;4978661;28;97610;-73
2020/12/03 04:32:18;;;;;;;44.17;22.83;;;;;;;5.32;49.68;100464.59;4986770;28;97851;-73
2020/12/03 04:34:45;;;;;;;42.30;23.55;;;;;;;5.31;49.98;100454.97;4982317;28;97310;-72
2020/12/03 04:37:14;;;;;;;42.35;23.25;;;;;;;5.32;49.56;100445.47;4980289;28;97697;-70
2020/12/03 04:39:41;;;;;;;42.45;22.42;;;;;;;5.33;50.07;100452.50;4982550;28;100322;-71
2020/12/03 04:42:19;;;;;;;48.10;23.77;;;;;;;5.33;50.29;100444.69;4973910;28;98241;-71
2020/12/03 04:44:47;;;;;;;41.03;22.85;;;;;;;5.33;50.25;100434.28;4975206;28;97190;-71
2020/12/03 04:47:30;;;;;;;47.88;24.05;;;;;;;5.31;49.47;100441.94;4972709;28;97662;-70
2020/12/03 04:50:07;;;;;;;42.85;23.30;;;;;;;5.31;50.01;100436.75;4972404;28;97880;-71
2020/12/03 04:53:05;;;;;;;43.58;22.52;;;;;;;5.30;50.09;100440.16;4981433;28;97842;-72
2020/12/03 04:55:40;;;;;;;45.97;23.13;;;;;;;5.29;50.28;100442.66;4988157;28;96851;-71
2020/12/03 04:58:10;;;;;;;43.22;23.02;;;;;;;5.31;49.82;100441.06;4981339;28;97175;-71
2020/12/03 05:00:43;;;;;;;43.22;22.25;;;;;;;5.32;50.09;100442.84;4987051;28;100261;-72
2020/12/03 05:03:30;;;;;;;40.83;22.42;;;;;;;5.32;49.70;100429.84;4973563;28;97918;-73
2020/12/03 05:06:37;;;;;;;44.53;22.40;;;;;;;5.33;49.82;100431.66;4982568;28;97132;-71
2020/12/03 05:09:10;;;;;;;44.08;22.80;;;;;;;5.36;49.62;100424.97;4980330;28;97153;-73
2020/12/03 05:11:40;;;;;;;41.17;22.25;;;;;;;5.37;49.54;100410.22;4985897;28;98768;-73
2020/12/03 05:14:15;;;;;;;41.75;21.88;;;;;;;5.36;49.67;100419.75;4988557;28;98038;-72
2020/12/03 05:16:50;;;;;;;46.65;23.73;;;;;;;5.37;50.21;100411.13;4986511;28;97175;-72
2020/12/03 05:19:27;;;;;;;45.75;22.20;;;;;;;5.39;49.70;100409.53;4989161;28;97183;-73
2020/12/03 05:21:56;;;;;;;45.75;22.88;;;;;;;5.44;50.10;100408.13;4981153;28;97326;-73
2020/12/03 05:24:24;;;;;;;41.22;22.40;;;;;;;5.46;49.37;100406.53;4988853;28;98341;-73
2020/12/03 05:26:52;;;;;;;42.75;23.50;;;;;;;5.50;50.05;100405.94;4986518;28;96722;-72
2020/12/03 05:29:21;;;;;;;43.08;22.50;;;;;;;5.52;49.66;100412.16;4985995;28;96860;-73
2020/12/03 05:31:48;;;;;;;42.92;21.75;;;;;;;5.52;49.52;100406.94;4990717;28;97712;-73
2020/12/03 05:34:18;;;;;;;48.75;24.10;;;;;;;5.55;50.11;100394.13;4990754;28;97863;-73
2020/12/03 05:36:59;;;;;;;46.72;24.13;;;;;;;5.55;49.80;100395.81;4987211;28;97323;-73
2020/12/03 05:39:30;;;;;;;44.88;21.65;;;;;;;5.56;50.18;100382.00;4987979;28;96859;-73
2020/12/03 05:42:00;;;;;;;38.85;21.25;;;;;;;5.55;49.74;100388.91;4986057;28;99416;-73
2020/12/03 05:44:43;;;;;;;42.95;21.73;;;;;;;5.52;49.96;100375.69;4984806;28;98949;-73
2020/12/03 05:47:31;;;;;;;40.92;20.88;;;;;;;5.56;49.81;100372.50;4990382;28;96684;-73
2020/12/03 05:50:02;;;;;;;42.47;22.30;;;;;;;5.58;49.42;100369.97;4990370;28;96956;-73
2020/12/03 05:52:30;;;;;;;41.33;21.88;;;;;;;5.61;50.18;100375.38;4988274;28;99119;-74
2020/12/03 05:55:01;;;;;;;45.78;22.30;;;;;;;5.61;49.69;100363.28;4986454;28;98886;-73
2020/12/03 05:57:32;;;;;;;39.22;20.90;;;;;;;5.65;49.54;100362.69;4986875;28;96794;-75
2020/12/03 06:00:09;;;;;;;44.25;22.98;;;;;;;5.64;50.17;100371.28;4978621;28;97745;-74
2020/12/03 06:02:42;;;;;;;42.53;21.15;;;;;;;5.65;49.58;100361.75;4999731;28;98418;-74
2020/12/03 06:05:17;;;;;;;42.15;20.83;;;;;;;5.65;49.51;100360.06;4981830;28;100364;-73
2020/12/03 06:07:59;;;;;;;42.35;21.70;;;;;;;5.64;49.53;100355.66;4984841;28;97092;-73
2020/12/03 06:10:45;;;;;;;40.05;21.75;;;;;;;5.65;49.90;100362.69;4986921;28;97934;-76
2020/12/03 06:13:34;;;;;;;41.95;21.42;;;;;;;5.69;50.14;100359.44;5001361;28;99465;-73
2020/12/03 06:16:03;;;;;;;38.30;21.15;;;;;;;5.73;49.46;100361.44;4991803;28;97195;-73
2020/12/03 06:18:54;;;;;;;41.92;21.13;;;;;;;5.74;49.30;100355.47;4987068;28;97135;-74
2020/12/03 06:21:35;;;;;;;43.05;19.98;;;;;;;5.73;49.86;100345.81;4987634;28;97487;-73
2020/12/03 06:24:30;;;;;;;37.83;20.27;;;;;;;5.74;49.81;100341.53;4988459;28;97946;-74
2020/12/03 06:27:24;;;;;;;37.08;19.10;;;;;;;5.76;49.58;100337.31;4959330;28;98202;-74
2020/12/03 06:29:59;;;;;;;40.03;20.40;;;;;;;5.80;49.95;100342.81;4983099;28;96897;-74
2020/12/03 06:32:53;;;;;;;39.70;21.50;;;;;;;5.80;49.43;100342.81;4978730;28;97622;-73
2020/12/03 06:35:26;;;;;;;38.63;20.60;;;;;;;5.81;49.29;100338.50;4985636;28;97902;-75
2020/12/03 06:37:59;;;;;;;37.67;19.42;;;;;;;5.79;49.36;100327.97;4987335;28;98063;-75
2020/12/03 06:40:30;;;;;;;41.53;19.70;;;;;;;5.81;49.86;100329.00;4981530;28;97147;-73
2020/12/03 06:43:09;;;;;;;39.33;19.33;;;;;;;5.82;49.90;100336.00;4977297;28;96863;-73
2020/12/03 06:45:42;;;;;;;39.03;20.90;;;;;;;5.80;49.19;100329.78;4976675;28;101450;-74
2020/12/03 06:48:27;;;;;;;40.28;19.98;;;;;;;5.79;49.93;100341.00;4981168;28;98507;-73
2020/12/03 06:51:32;;;;;;;37.17;19.75;;;;;;;5.82;49.51;100345.53;4977634;28;97096;-73
2020/12/03 06:54:26;;;;;;;39.20;19.95;;;;;;;5.83;49.95;100348.25;4986605;28;98123;-76
2020/12/03 06:57:23;;;;;;;33.53;18.27;;;;;;;5.84;49.92;100341.31;4993977;28;99672;-73
2020/12/03 07:00:16;;;;;;;34.13;18.42;;;;;;;5.86;49.64;100342.31;4987308;28;96700;-75
2020/12/03 07:03:12;;;;;;;37.50;19.02;;;;;;;5.86;49.75;100334.50;4985749;28;97129;-74
2020/12/03 07:06:19;;;;;;;33.75;18.65;;;;;;;5.88;49.37;100331.22;4988216;28;97244;-75
2020/12/03 07:08:55;;;;;;;34.08;17.27;;;;;;;5.91;49.64;100336.59;4978241;28;97362;-73
2020/12/03 07:11:49;;;;;;;44.63;21.95;;;;;;;5.93;49.16;100334.13;4982180;28;99108;-74
2020/12/03 07:14:49;;;;;;;41.70;19.98;;;;;;;5.93;49.80;100324.56;4974234;28;97481;-74
2020/12/03 07:18:00;;;;;;;40.72;18.80;;;;;;;5.96;48.93;100330.00;4977042;28;96873;-73
2020/12/03 07:20:52;;;;;;;35.97;19.20;;;;;;;5.97;49.27;100321.38;4991276;28;98556;-75
2020/12/03 07:23:34;;;;;;;30.10;18.27;;;;;;;5.96;49.36;100306.56;4992489;28;97727;-77
2020/12/03 07:26:03;;;;;;;32.88;17.58;;;;;;;5.96;49.52;100308.25;4993757;28;96884;-78
2020/12/03 07:28:35;;;;;;;35.20;20.02;;;;;;;5.98;49.71;100304.03;4987950;28;96926;-77
2020/12/03 07:31:05;;;;;;;37.78;20.00;;;;;;;5.99;49.95;100300.59;4990680;28;98667;-77
2020/12/03 07:33:42;;;;;;;37.45;19.45;;;;;;;5.99;49.46;100298.91;4984888;28;97785;-78
2020/12/03 07:36:39;;;;;;;35.55;18.98;;;;;;;5.99;49.71;100296.31;4991357;28;96754;-78
2020/12/03 07:39:10;;;;;;;38.53;20.05;;;;;;;6.02;49.63;100279.97;5018917;27;97434;-79
2020/12/03 07:41:47;;;;;;;37.03;18.30;;;;;;;5.99;48.91;100283.28;4988580;28;97100;-79
2020/12/03 07:44:21;;;;;;;37.88;19.70;;;;;;;5.98;49.01;100276.28;4993985;28;101943;-80
2020/12/03 07:46:52;;;;;;;34.88;19.83;;;;;;;5.99;49.60;100272.84;4991507;28;96704;-78
2020/12/03 07:49:43;;;;;;;34.92;19.30;;;;;;;5.96;49.67;100277.88;4994182;28;97140;-79
2020/12/03 07:52:40;;;;;;;34.60;19.05;;;;;;;5.96;49.34;100277.88;4999483;28;99490;-78
2020/12/03 07:55:28;;;;;;;35.28;18.40;;;;;;;5.96;49.52;100262.25;4985286;28;97403;-78
2020/12/03 07:57:56;;;;;;;41.92;20.60;;;;;;;5.98;49.82;100255.41;4986896;28;97036;-78
2020/12/03 08:00:52;;;;;;;43.83;20.83;;;;;;;5.96;49.14;100246.59;4988539;28;96813;-79
2020/12/03 08:03:42;;;;;;;36.08;19.10;;;;;;;5.96;49.51;100249.22;4992305;28;96996;-78
2020/12/03 08:06:29;;;;;;;39.60;19.60;;;;;;;5.99;49.17;100238.97;4989202;28;97825;-79
2020/12/03 08:09:23;;;;;;;40.08;20.25;;;;;;;5.99;49.56;100246.78;4986159;28;97072;-79
2020/12/03 08:12:07;;;;;;;40.60;20.45;;;;;;;6.02;49.60;100256.50;4992571;28;97348;-81
2020/12/03 08:14:38;;;;;;;38.63;21.20;;;;;;;6.03;49.15;100264.41;4989977;28;97493;-78
2020/12/03 08:17:50;;;;;;;39.60;20.75;;;;;;;6.00;48.69;100252.91;4984851;28;97865;-78
2020/12/03 08:20:23;;;;;;;39.88;19.67;;;;;;;6.00;49.49;100232.03;4991045;28;97562;-78
2020/12/03 08:22:55;;;;;;;38.55;20.95;;;;;;;5.96;49.09;100241.38;4989884;28;97010;-79
2020/12/03 08:25:25;;;;;;;41.17;20.42;;;;;;;5.94;49.01;100249.91;4988965;28;97913;-79
2020/12/03 08:28:00;;;;;;;40.72;19.35;;;;;;;5.93;49.56;100246.38;4987799;28;97926;-78
2020/12/03 08:30:35;;;;;;;40.00;20.30;;;;;;;5.90;49.05;100245.28;4989510;28;96744;-78
2020/12/03 08:33:09;;;;;;;39.75;20.70;;;;;;;5.93;49.44;100235.09;4991804;28;96866;-78
2020/12/03 08:35:36;;;;;;;37.80;20.45;;;;;;;5.95;49.43;100223.94;4991389;28;97940;-78
2020/12/03 08:38:05;;;;;;;38.55;20.05;;;;;;;5.94;48.98;100216.03;4995763;28;98282;-79
2020/12/03 08:40:35;;;;;;;42.35;21.77;;;;;;;5.96;49.63;100214.41;4986206;28;96786;-78
2020/12/03 08:43:06;;;;;;;41.20;20.30;;;;;;;5.97;49.08;100208.38;4993271;28;97210;-78
2020/12/03 08:45:42;;;;;;;42.35;21.77;;;;;;;5.98;49.61;100203.28;5009144;28;100703;-78
2020/12/03 08:48:13;;;;;;;39.20;20.65;;;;;;;6.00;48.80;100209.47;4991264;28;96759;-78
2020/12/03 08:50:41;;;;;;;41.58;20.30;;;;;;;6.01;49.25;100205.16;4990693;28;96833;-78
2020/12/03 08:53:11;;;;;;;42.90;21.95;;;;;;;6.02;48.82;100209.59;4997879;28;97298;-79
2020/12/03 08:55:39;;;;;;;49.20;22.63;;;;;;;6.04;49.39;100201.03;4988325;28;98621;-79
2020/12/03 08:58:08;;;;;;;44.78;20.75;;;;;;;6.11;49.44;100211.03;4987606;28;97846;-78
2020/12/03 09:00:41;;;;;;;40.72;21.38;;;;;;;6.11;49.03;100205.81;4991392;28;96837;-78
2020/12/03 09:03:14;;;;;;;42.85;20.63;;;;;;;6.12;48.83;100209.31;4986075;28;97045;-78
2020/12/03 09:05:43;;;;;;;41.72;20.17;;;;;;;6.13;49.40;100209.41;5024403;27;98097;-78
2020/12/03 09:08:17;;;;;;;41.55;20.85;;;;;;;6.13;49.14;100212.03;4990620;28;99088;-78
2020/12/03 09:10:46;;;;;;;46.03;21.08;;;;;;;6.17;48.69;100201.81;4996360;28;96908;-79
2020/12/03 09:13:16;;;;;;;44.35;20.67;;;;;;;6.20;48.81;100207.19;4987867;28;97566;-78
2020/12/03 09:15:45;;;;;;;44.60;22.58;;;;;;;6.22;48.94;100200.38;4994964;28;98009;-78
2020/12/03 09:18:14;;;;;;;40.33;21.00;;;;;;;6.23;49.02;100199.53;4989469;28;99729;-78
2020/12/03 09:20:42;;;;;;;41.65;21.58;;;;;;;6.24;49.06;100194.41;4989146;28;97089;-78
2020/12/03 09:23:15;;;;;;;44.08;21.52;;;;;;;6.27;48.83;100191.09;4989246;28;96745;-78
2020/12/03 09:25:42;;;;;;;41.30;21.23;;;;;;;6.30;48.83;100183.44;4998006;28;97830;-78
2020/12/03 09:28:10;;;;;;;43.10;21.38;;;;;;;6.33;48.35;100184.56;4989496;28;98089;-79
2020/12/03 09:30:41;;;;;;;39.83;20.40;;;;;;;6.38;48.92;100179.59;4987418;28;97246;-77
2020/12/03 09:33:14;;;;;;;38.78;20.05;;;;;;;6.44;48.71;100182.59;4984607;28;96913;-78
2020/12/03 09:35:43;;;;;;;37.80;20.63;;;;;;;6.47;48.47;100177.53;4992285;28;100705;-78
2020/12/03 09:38:11;;;;;;;44.03;20.50;;;;;;;6.52;48.59;100169.19;4987559;28;98095;-79
2020/12/03 09:40:45;;;;;;;41.55;20.27;;;;;;;6.52;47.97;100163.97;4982608;28;96863;-78
2020/12/03 09:43:14;;;;;;;41.40;19.45;;;;;;;6.55;48.64;100155.44;4982423;28;96901;-79
2020/12/03 09:45:43;;;;;;;39.92;20.67;;;;;;;6.57;48.35;100161.63;4986649;28;99113;-78
2020/12/03 09:48:32;;;;;;;36.88;18.73;;;;;;;6.57;48.50;100157.28;4983927;28;99400;-77
2020/12/03 09:51:03;;;;;;;35.70;18.60;;;;;;;6.61;48.57;100148.84;4984773;28;97738;-78
2020/12/03 09:53:33;;;;;;;39.55;19.80;;;;;;;6.64;48.15;100150.75;4985532;28;97320;-79
2020/12/03 09:56:01;;;;;;;36.88;19.88;;;;;;;6.70;48.50;100143.25;4982686;28;97832;-77
2020/12/03 09:58:28;;;;;;;37.88;19.63;;;;;;;6.73;48.53;100138.22;4968556;28;100932;-77
2020/12/03 10:01:03;;;;;;;39.20;19.70;;;;;;;6.77;48.57;100120.19;4993406;28;97100;-77
2020/12/03 10:04:21;;;;;;;39.03;19.10;;;;;;;6.76;47.75;100120.13;4967282;28;96784;-77
2020/12/03 10:06:56;;;;;;;40.70;18.85;;;;;;;6.78;48.30;100121.13;4950070;28;101718;-77
2020/12/03 10:09:37;;;;;;;39.83;19.70;;;;;;;6.80;47.88;100107.34;4983044;28;99075;-76
2020/12/03 10:12:36;;;;;;;37.65;18.40;;;;;;;6.84;48.07;100091.03;4989297;28;96669;-76
2020/12/03 10:15:25;;;;;;;36.50;18.70;;;;;;;6.87;48.03;100095.53;4979728;28;97172;-78
2020/12/03 10:18:09;;;;;;;36.80;17.73;;;;;;;6.86;47.97;100083.31;4989499;28;98965;-77
2020/12/03 10:20:37;;;;;;;38.83;18.50;;;;;;;6.90;47.86;100069.59;4987869;28;98378;-78
2020/12/03 10:23:16;;;;;;;36.25;18.25;;;;;;;6.94;47.49;100063.72;4987377;28;97248;-77
2020/12/03 10:26:13;;;;;;;38.97;17.60;;;;;;;6.98;48.07;100058.78;4983045;28;96794;-78
2020/12/03 10:28:41;;;;;;;34.20;17.27;;;;;;;7.00;47.45;100051.94;4990162;28;97816;-78
2020/12/03 10:31:09;;;;;;;42.92;22.27;;;;;;;7.06;47.49;100040.94;4988099;28;97773;-78
2020/12/03 10:33:37;;;;;;;52.53;26.08;;;;;;;7.11;47.42;100042.06;4991270;28;96928;-77
2020/12/03 10:36:12;;;;;;;45.00;22.92;;;;;;;7.14;47.28;100042.22;4997765;28;97124;-78
2020/12/03 10:38:44;;;;;;;35.92;18.17;;;;;;;7.18;47.29;100039.88;4988667;28;101040;-78
2020/12/03 10:41:12;;;;;;;34.75;17.00;;;;;;;7.22;47.45;100028.75;4991464;28;101436;-78
2020/12/03 10:44:02;;;;;;;34.38;17.60;;;;;;;7.23;47.41;100029.66;4976826;28;97395;-77
2020/12/03 10:46:31;;;;;;;33.35;17.73;;;;;;;7.29;47.51;100023.88;4987683;28;96728;-78
2020/12/03 10:48:59;;;;;;;30.23;17.38;;;;;;;7.31;47.21;100020.53;4990922;28;99389;-79
2020/12/03 10:51:27;;;;;;;36.55;18.05;;;;;;;7.31;47.21;100020.53;4987256;28;101578;-78
2020/12/03 10:53:56;;;;;;;32.10;17.00;;;;;;;7.29;47.40;100016.94;4975418;28;96878;-78
2020/12/03 10:56:27;;;;;;;35.42;18.17;;;;;;;7.30;47.40;100021.34;4995333;28;97355;-78
2020/12/03 10:59:38;;;;;;;36.80;18.23;;;;;;;7.29;46.96;100016.94;4983231;28;96950;-78
2020/12/03 11:02:14;;;;;;;32.55;16.08;;;;;;;7.29;46.99;100009.09;4989776;22;97860;-73
2020/12/03 11:04:42;;;;;;;32.53;17.40;;;;;;;7.28;47.25;100012.53;4995790;28;96807;-72
2020/12/03 11:07:12;;;;;;;37.00;18.27;;;;;;;7.27;46.97;100010.75;5007238;28;97061;-74
2020/12/03 11:09:59;;;;;;;35.70;18.80;;;;;;;7.27;47.08;100010.75;5003981;28;101525;-74
2020/12/03 11:12:27;;;;;;;33.13;18.35;;;;;;;7.27;47.16;100009.84;5006713;28;98262;-75
2020/12/03 11:15:00;;;;;;;33.58;18.35;;;;;;;7.24;47.13;100013.19;5004965;28;97062;-73
2020/12/03 11:18:01;;;;;;;32.95;17.77;;;;;;;7.20;46.69;99998.19;5004388;28;96666;-74
2020/12/03 11:20:52;;;;;;;33.40;17.10;;;;;;;7.18;47.40;100005.94;4992708;28;98719;-73
2020/12/03 11:23:21;;;;;;;37.00;17.42;;;;;;;7.16;47.10;100006.66;4990901;28;99138;-75
2020/12/03 11:25:50;;;;;;;36.33;19.10;;;;;;;7.19;47.48;100006.81;4988197;28;96977;-73
2020/12/03 11:28:29;;;;;;;36.10;18.35;;;;;;;7.18;47.26;100005.03;4989447;28;96921;-73
2020/12/03 11:31:02;;;;;;;31.52;16.88;;;;;;;7.21;47.12;99997.34;4997928;28;99279;-74
2020/12/03 11:33:37;;;;;;;30.33;16.60;;;;;;;7.16;47.32;99990.97;5000072;28;97841;-73
2020/12/03 11:36:07;;;;;;;32.50;18.13;;;;;;;7.15;47.59;99990.06;4992916;28;97040;-72
2020/12/03 11:38:35;;;;;;;35.05;17.50;;;;;;;7.13;47.55;99985.59;4991101;28;97135;-73
2020/12/03 11:41:07;;;;;;;34.95;18.17;;;;;;;7.12;47.73;99989.00;4990575;28;98104;-73
2020/12/03 11:49:29;;;;;;;32.13;17.13;;;;;;;7.14;47.55;99979.56;4990769;28;97092;-73
2020/12/03 11:52:13;;;;;;;41.05;20.85;;;;;;;7.15;47.11;99966.56;4989652;28;98016;-74
2020/12/03 11:54:42;;;;;;;55.05;26.13;;;;;;;7.20;47.02;99961.63;4998195;28;98209;-73